Date,TemperatureHighF,TemperatureAvgF,TemperatureLowF,DewpointHighF,DewpointAvgF,DewpointLowF,HumidityHigh,HumidityAvg,HumidityLow,PressureMaxIn,PressureMinIn,WindSpeedMaxMPH,WindSpeedAvgMPH,GustSpeedMaxMPH,PrecipitationSumIn
2013-1-1,46,36,24,17,8,3,55,33,21,26.28,26.13,40,8,40,0.00
2013-1-2,52,43,36,15,8,3,26,24,23,26.16,26.10,35,9,35,0.00
2013-1-3,54,45,38,18,11,6,26,25,23,26.25,26.10,28,7,28,0.00
2013-1-4,59,41,23,22,8,-7,27,25,23,26.31,26.25,14,2,14,0.00
2013-1-5,63,36,18,24,3,-11,26,24,21,26.34,26.25,8,0,8,0.00
2013-1-6,45,34,23,23,5,-7,54,32,21,26.28,26.05,9,1,12,0.08
2013-1-7,50,38,28,25,11,-4,61,37,20,26.13,26.02,21,3,21,0.24
2013-1-8,65,42,24,23,6,-7,30,22,18,26.25,26.13,16,2,16,0.00
2013-1-9,67,50,33,24,12,0,32,21,18,26.28,26.13,16,1,17,0.00
2013-1-10,41,35,30,30,15,-3,69,46,23,26.13,26.02,22,6,22,0.04
2013-1-11,40,29,19,8,-2,-10,45,25,22,26.19,26.07,13,2,13,0.00
2013-1-12,44,29,18,15,2,-10,54,32,22,26.16,26.07,13,1,13,0.00
2013-1-13,45,30,18,8,-2,-11,27,24,22,26.16,26.07,13,1,13,0.00
2013-1-14,38,29,16,6,-2,-12,29,26,24,26.28,26.10,21,4,21,0.00
2013-1-15,46,37,28,11,5,-2,28,26,24,26.40,26.28,28,8,28,0.00
2013-1-16,57,52,48,18,15,12,24,23,21,26.37,26.22,36,12,36,0.00
2013-1-17,66,54,48,26,17,12,25,23,22,26.31,26.22,34,9,34,0.00
2013-1-18,67,52,44,26,16,10,25,24,22,26.28,26.22,17,5,17,0.00
2013-1-19,74,53,35,30,16,2,26,23,21,26.34,26.25,18,5,18,0.00
2013-1-20,64,47,30,25,12,-3,26,24,22,26.28,26.19,15,4,15,0.00
2013-1-21,69,53,31,29,17,-1,27,24,22,26.25,26.19,18,6,20,0.00
2013-1-22,76,54,34,32,16,2,27,23,20,26.28,26.19,10,2,10,0.00
2013-1-23,70,53,38,26,13,2,22,20,17,26.28,26.22,12,1,12,0.00
2013-1-24,63,53,48,38,22,9,52,32,17,26.31,26.22,9,0,9,0.00
2013-1-25,74,62,50,63,47,11,80,61,19,26.25,26.16,8,0,9,1.20
2013-1-26,73,73,73,62,62,62,70,70,70,26.16,26.16,8,2,8,0.44
2013-1-27,73,73,73,62,62,62,70,70,70,26.16,26.07,18,4,18,0.04
2013-1-28,73,73,73,62,62,62,70,70,70,26.25,26.10,13,3,16,0.20
2013-1-29,73,39,0,62,15,-40,70,43,12,26.28,26.22,16,2,16,0.00
2013-1-30,0,0,0,-40,-40,-40,12,12,12,26.40,26.28,31,6,31,0.00
2013-1-31,0,0,0,-40,-40,-40,12,12,12,26.34,26.25,32,7,32,0.00